sensor_id;sensor_type;location;lat;lon;timestamp;pressure;altitude;pressure_sealevel;temperature;humidity
14800;BME280;7491;57.750;11.970;2022-09-09T00:00:19;75841.59;;;-142.11;100.00
14800;BME280;7491;57.750;11.970;2022-09-09T00:02:52;75843.63;;;-142.11;100.00
14800;BME280;7491;57.750;11.970;2022-09-09T00:05:26;75847.72;;;-142.11;100.00
14800;BME280;7491;57.750;11.970;2022-09-09T00:07:58;75849.75;;;-142.11;100.00
14800;BME280;7491;57.750;11.970;2022-09-09T00:10:29;75847.72;;;-142.11;100.00
14800;BME280;7491;57.750;11.970;2022-09-09T00:13:05;75847.72;;;-142.11;100.00
14800;BME280;7491;57.750;11.970;2022-09-09T00:15:37;75841.59;;;-142.11;100.00
14800;BME280;7491;57.750;11.970;2022-09-09T00:18:14;75845.69;;;-142.11;100.00
14800;BME280;7491;57.750;11.970;2022-09-09T00:20:46;75843.63;;;-142.11;100.00
14800;BME280;7491;57.750;11.970;2022-09-09T00:23:22;75853.81;;;-142.11;100.00
14800;BME280;7491;57.750;11.970;2022-09-09T00:25:55;75841.59;;;-142.11;100.00
14800;BME280;7491;57.750;11.970;2022-09-09T00:28:27;75851.78;;;-142.11;100.00
14800;BME280;7491;57.750;11.970;2022-09-09T00:30:59;75859.94;;;-142.11;100.00
14800;BME280;7491;57.750;11.970;2022-09-09T00:33:27;75855.88;;;-142.11;100.00
14800;BME280;7491;57.750;11.970;2022-09-09T00:35:56;75841.59;;;-142.11;100.00
14800;BME280;7491;57.750;11.970;2022-09-09T00:38:28;75849.75;;;-142.11;100.00
14800;BME280;7491;57.750;11.970;2022-09-09T00:41:05;75859.94;;;-142.11;100.00
14800;BME280;7491;57.750;11.970;2022-09-09T00:43:36;75843.63;;;-142.11;100.00
14800;BME280;7491;57.750;11.970;2022-09-09T00:46:32;75845.69;;;-142.11;100.00
14800;BME280;7491;57.750;11.970;2022-09-09T00:49:13;75849.75;;;-142.11;100.00
14800;BME280;7491;57.750;11.970;2022-09-09T00:51:49;75853.81;;;-142.11;100.00
14800;BME280;7491;57.750;11.970;2022-09-09T00:54:38;75849.75;;;-142.11;100.00
14800;BME280;7491;57.750;11.970;2022-09-09T00:57:23;75849.75;;;-142.11;100.00
14800;BME280;7491;57.750;11.970;2022-09-09T00:59:58;75861.97;;;-142.11;100.00
14800;BME280;7491;57.750;11.970;2022-09-09T01:02:35;75845.69;;;-142.11;100.00
14800;BME280;7491;57.750;11.970;2022-09-09T01:05:10;75845.69;;;-142.11;100.00
14800;BME280;7491;57.750;11.970;2022-09-09T01:07:40;75845.69;;;-142.11;100.00
14800;BME280;7491;57.750;11.970;2022-09-09T01:10:21;75841.59;;;-142.11;100.00
14800;BME280;7491;57.750;11.970;2022-09-09T01:12:55;75847.72;;;-142.11;100.00
14800;BME280;7491;57.750;11.970;2022-09-09T01:15:26;75861.97;;;-142.11;100.00
14800;BME280;7491;57.750;11.970;2022-09-09T01:18:00;75853.81;;;-142.11;100.00
14800;BME280;7491;57.750;11.970;2022-09-09T01:20:31;75841.59;;;-142.11;100.00
14800;BME280;7491;57.750;11.970;2022-09-09T01:23:28;75851.78;;;-142.11;100.00
14800;BME280;7491;57.750;11.970;2022-09-09T01:26:17;75853.81;;;-142.11;100.00
14800;BME280;7491;57.750;11.970;2022-09-09T01:28:46;75859.94;;;-142.11;100.00
14800;BME280;7491;57.750;11.970;2022-09-09T01:31:18;75861.97;;;-142.11;100.00
14800;BME280;7491;57.750;11.970;2022-09-09T01:33:45;75864.03;;;-142.11;100.00
14800;BME280;7491;57.750;11.970;2022-09-09T01:36:18;75851.78;;;-142.11;100.00
14800;BME280;7491;57.750;11.970;2022-09-09T01:38:46;75857.91;;;-142.11;100.00
14800;BME280;7491;57.750;11.970;2022-09-09T01:41:13;75861.97;;;-142.11;100.00
14800;BME280;7491;57.750;11.970;2022-09-09T01:43:41;75861.97;;;-142.11;100.00
14800;BME280;7491;57.750;11.970;2022-09-09T01:46:08;75857.91;;;-142.11;100.00
14800;BME280;7491;57.750;11.970;2022-09-09T01:48:36;75861.97;;;-142.11;100.00
14800;BME280;7491;57.750;11.970;2022-09-09T01:51:02;75851.78;;;-142.11;100.00
14800;BME280;7491;57.750;11.970;2022-09-09T01:53:29;75859.94;;;-142.11;100.00
14800;BME280;7491;57.750;11.970;2022-09-09T01:56:03;75843.63;;;-142.11;100.00
14800;BME280;7491;57.750;11.970;2022-09-09T01:58:36;75859.94;;;-142.11;100.00
14800;BME280;7491;57.750;11.970;2022-09-09T02:01:14;75864.03;;;-142.11;100.00
14800;BME280;7491;57.750;11.970;2022-09-09T02:03:44;75851.78;;;-142.11;100.00
14800;BME280;7491;57.750;11.970;2022-09-09T02:06:21;75857.91;;;-142.11;100.00
14800;BME280;7491;57.750;11.970;2022-09-09T02:08:50;75847.72;;;-142.11;100.00
14800;BME280;7491;57.750;11.970;2022-09-09T02:11:20;75855.88;;;-142.11;100.00
14800;BME280;7491;57.750;11.970;2022-09-09T02:13:50;75847.72;;;-142.11;100.00
14800;BME280;7491;57.750;11.970;2022-09-09T02:16:22;75847.72;;;-142.11;100.00
14800;BME280;7491;57.750;11.970;2022-09-09T02:18:51;75849.75;;;-142.11;100.00
14800;BME280;7491;57.750;11.970;2022-09-09T02:21:21;75853.81;;;-142.11;100.00
14800;BME280;7491;57.750;11.970;2022-09-09T02:23:49;75845.69;;;-142.11;100.00
14800;BME280;7491;57.750;11.970;2022-09-09T02:26:19;75843.63;;;-142.11;100.00
14800;BME280;7491;57.750;11.970;2022-09-09T02:28:50;75847.72;;;-142.11;100.00
14800;BME280;7491;57.750;11.970;2022-09-09T02:31:22;75847.72;;;-142.11;100.00
14800;BME280;7491;57.750;11.970;2022-09-09T02:33:53;75839.56;;;-142.11;100.00
14800;BME280;7491;57.750;11.970;2022-09-09T02:36:22;75841.59;;;-142.11;100.00
14800;BME280;7491;57.750;11.970;2022-09-09T02:38:51;75857.91;;;-142.11;100.00
14800;BME280;7491;57.750;11.970;2022-09-09T02:41:21;75843.63;;;-142.11;100.00
14800;BME280;7491;57.750;11.970;2022-09-09T02:43:50;75849.75;;;-142.11;100.00
14800;BME280;7491;57.750;11.970;2022-09-09T02:46:44;75831.41;;;-142.11;100.00
14800;BME280;7491;57.750;11.970;2022-09-09T02:49:19;75839.56;;;-142.11;100.00
14800;BME280;7491;57.750;11.970;2022-09-09T02:51:53;75817.13;;;-142.11;100.00
14800;BME280;7491;57.750;11.970;2022-09-09T02:54:27;75827.34;;;-142.11;100.00
14800;BME280;7491;57.750;11.970;2022-09-09T02:57:02;75833.44;;;-142.11;100.00
14800;BME280;7491;57.750;11.970;2022-09-09T02:59:30;75835.47;;;-142.11;100.00
14800;BME280;7491;57.750;11.970;2022-09-09T03:01:58;75831.41;;;-142.11;100.00
14800;BME280;7491;57.750;11.970;2022-09-09T03:04:25;75821.22;;;-142.11;100.00
14800;BME280;7491;57.750;11.970;2022-09-09T03:06:51;75829.38;;;-142.11;100.00
14800;BME280;7491;57.750;11.970;2022-09-09T03:09:18;75827.34;;;-142.11;100.00
14800;BME280;7491;57.750;11.970;2022-09-09T03:11:44;75823.25;;;-142.11;100.00
14800;BME280;7491;57.750;11.970;2022-09-09T03:14:11;75825.28;;;-142.11;100.00
14800;BME280;7491;57.750;11.970;2022-09-09T03:16:38;75825.28;;;-142.11;100.00
14800;BME280;7491;57.750;11.970;2022-09-09T03:19:05;75819.19;;;-142.11;100.00
14800;BME280;7491;57.750;11.970;2022-09-09T03:21:32;75827.34;;;-142.11;100.00
14800;BME280;7491;57.750;11.970;2022-09-09T03:23:59;75821.22;;;-142.11;100.00
14800;BME280;7491;57.750;11.970;2022-09-09T03:26:28;75833.44;;;-142.11;100.00
14800;BME280;7491;57.750;11.970;2022-09-09T03:28:55;75825.28;;;-142.11;100.00
14800;BME280;7491;57.750;11.970;2022-09-09T03:31:21;75823.25;;;-142.11;100.00
14800;BME280;7491;57.750;11.970;2022-09-09T03:33:48;75825.28;;;-142.11;100.00
14800;BME280;7491;57.750;11.970;2022-09-09T03:36:17;75829.38;;;-142.11;100.00
14800;BME280;7491;57.750;11.970;2022-09-09T03:38:43;75835.47;;;-142.11;100.00
14800;BME280;7491;57.750;11.970;2022-09-09T03:41:10;75821.22;;;-142.11;100.00
14800;BME280;7491;57.750;11.970;2022-09-09T03:43:38;75821.22;;;-142.11;100.00
14800;BME280;7491;57.750;11.970;2022-09-09T03:46:04;75823.25;;;-142.11;100.00
14800;BME280;7491;57.750;11.970;2022-09-09T03:48:31;75823.25;;;-142.11;100.00
14800;BME280;7491;57.750;11.970;2022-09-09T03:50:58;75817.13;;;-142.11;100.00
14800;BME280;7491;57.750;11.970;2022-09-09T03:53:28;75808.97;;;-142.11;100.00
14800;BME280;7491;57.750;11.970;2022-09-09T03:55:55;75802.88;;;-142.11;100.00
14800;BME280;7491;57.750;11.970;2022-09-09T03:58:25;75790.63;;;-142.11;100.00
14800;BME280;7491;57.750;11.970;2022-09-09T04:00:55;75796.75;;;-142.11;100.00
14800;BME280;7491;57.750;11.970;2022-09-09T04:03:22;75778.41;;;-142.11;100.00
14800;BME280;7491;57.750;11.970;2022-09-09T04:05:50;75776.38;;;-142.11;100.00
14800;BME280;7491;57.750;11.970;2022-09-09T04:08:16;75782.50;;;-142.11;100.00
14800;BME280;7491;57.750;11.970;2022-09-09T04:10:45;75772.28;;;-142.11;100.00
14800;BME280;7491;57.750;11.970;2022-09-09T04:13:15;75764.16;;;-142.11;100.00
14800;BME280;7491;57.750;11.970;2022-09-09T04:15:43;75753.94;;;-142.11;100.00
14800;BME280;7491;57.750;11.970;2022-09-09T04:18:10;75758.03;;;-142.11;100.00
14800;BME280;7491;57.750;11.970;2022-09-09T04:20:37;75764.16;;;-142.11;100.00
14800;BME280;7491;57.750;11.970;2022-09-09T04:23:04;75745.81;;;-142.11;100.00
14800;BME280;7491;57.750;11.970;2022-09-09T04:25:31;75741.72;;;-142.11;100.00
14800;BME280;7491;57.750;11.970;2022-09-09T04:27:59;75737.66;;;-142.11;100.00
14800;BME280;7491;57.750;11.970;2022-09-09T04:30:26;75733.56;;;-142.11;100.00
14800;BME280;7491;57.750;11.970;2022-09-09T04:32:53;75747.84;;;-142.11;100.00
14800;BME280;7491;57.750;11.970;2022-09-09T04:35:20;75739.69;;;-142.11;100.00
14800;BME280;7491;57.750;11.970;2022-09-09T04:37:46;75749.88;;;-142.11;100.00
14800;BME280;7491;57.750;11.970;2022-09-09T04:40:13;75725.41;;;-142.11;100.00
14800;BME280;7491;57.750;11.970;2022-09-09T04:42:40;75723.38;;;-142.11;100.00
14800;BME280;7491;57.750;11.970;2022-09-09T04:45:10;75723.38;;;-142.11;100.00
14800;BME280;7491;57.750;11.970;2022-09-09T04:47:38;75717.25;;;-142.11;100.00
14800;BME280;7491;57.750;11.970;2022-09-09T04:50:07;75727.44;;;-142.11;100.00
14800;BME280;7491;57.750;11.970;2022-09-09T04:52:34;75705.03;;;-142.11;100.00
14800;BME280;7491;57.750;11.970;2022-09-09T04:55:02;75703.00;;;-142.11;100.00
14800;BME280;7491;57.750;11.970;2022-09-09T04:57:29;75703.00;;;-142.11;100.00
14800;BME280;7491;57.750;11.970;2022-09-09T04:59:57;75711.16;;;-142.11;100.00
14800;BME280;7491;57.750;11.970;2022-09-09T05:02:26;75703.00;;;-142.11;100.00
14800;BME280;7491;57.750;11.970;2022-09-09T05:04:53;75713.19;;;-142.11;100.00
14800;BME280;7491;57.750;11.970;2022-09-09T05:07:20;75713.19;;;-142.11;100.00
14800;BME280;7491;57.750;11.970;2022-09-09T05:09:47;75707.06;;;-142.11;100.00
14800;BME280;7491;57.750;11.970;2022-09-09T05:12:14;75692.81;;;-142.11;100.00
14800;BME280;7491;57.750;11.970;2022-09-09T05:14:41;75690.75;;;-142.11;100.00
14800;BME280;7491;57.750;11.970;2022-09-09T05:17:09;75690.75;;;-142.11;100.00
14800;BME280;7491;57.750;11.970;2022-09-09T05:19:37;75684.66;;;-142.11;100.00
14800;BME280;7491;57.750;11.970;2022-09-09T05:22:04;75676.50;;;-142.11;100.00
14800;BME280;7491;57.750;11.970;2022-09-09T05:24:31;75670.38;;;-142.11;100.00
14800;BME280;7491;57.750;11.970;2022-09-09T05:26:58;75664.28;;;-142.11;100.00
14800;BME280;7491;57.750;11.970;2022-09-09T05:29:27;75660.19;;;-142.11;100.00
14800;BME280;7491;57.750;11.970;2022-09-09T05:31:54;75658.16;;;-142.11;100.00
14800;BME280;7491;57.750;11.970;2022-09-09T05:34:20;75643.88;;;-142.11;100.00
14800;BME280;7491;57.750;11.970;2022-09-09T05:36:49;75635.72;;;-142.11;100.00
14800;BME280;7491;57.750;11.970;2022-09-09T05:39:16;75635.72;;;-142.11;100.00
14800;BME280;7491;57.750;11.970;2022-09-09T05:41:43;75623.50;;;-142.11;100.00
14800;BME280;7491;57.750;11.970;2022-09-09T05:44:10;75629.63;;;-142.11;100.00
14800;BME280;7491;57.750;11.970;2022-09-09T05:46:36;75623.50;;;-142.11;100.00
14800;BME280;7491;57.750;11.970;2022-09-09T05:49:03;75617.38;;;-142.11;100.00
14800;BME280;7491;57.750;11.970;2022-09-09T05:51:30;75627.59;;;-142.11;100.00
14800;BME280;7491;57.750;11.970;2022-09-09T05:53:58;75617.38;;;-142.11;100.00
14800;BME280;7491;57.750;11.970;2022-09-09T05:56:26;75621.47;;;-142.11;100.00
14800;BME280;7491;57.750;11.970;2022-09-09T05:58:54;75611.28;;;-142.11;100.00
14800;BME280;7491;57.750;11.970;2022-09-09T06:01:23;75617.38;;;-142.11;100.00
14800;BME280;7491;57.750;11.970;2022-09-09T06:03:51;75617.38;;;-142.11;100.00
14800;BME280;7491;57.750;11.970;2022-09-09T06:06:19;75603.13;;;-142.11;100.00
14800;BME280;7491;57.750;11.970;2022-09-09T06:08:48;75605.16;;;-142.11;100.00
14800;BME280;7491;57.750;11.970;2022-09-09T06:11:19;75609.25;;;-142.11;100.00
14800;BME280;7491;57.750;11.970;2022-09-09T06:13:46;75599.03;;;-142.11;100.00
14800;BME280;7491;57.750;11.970;2022-09-09T06:16:16;75590.91;;;-142.11;100.00
14800;BME280;7491;57.750;11.970;2022-09-09T06:18:44;75601.09;;;-142.11;100.00
14800;BME280;7491;57.750;11.970;2022-09-09T06:21:16;75611.28;;;-142.11;100.00
14800;BME280;7491;57.750;11.970;2022-09-09T06:23:44;75597.00;;;-142.11;100.00
14800;BME280;7491;57.750;11.970;2022-09-09T06:26:12;75588.84;;;-142.11;100.00
14800;BME280;7491;57.750;11.970;2022-09-09T06:28:40;75580.69;;;-142.11;100.00
14800;BME280;7491;57.750;11.970;2022-09-09T06:31:09;75580.69;;;-142.11;100.00
14800;BME280;7491;57.750;11.970;2022-09-09T06:33:37;75574.59;;;-142.11;100.00
14800;BME280;7491;57.750;11.970;2022-09-09T06:36:07;75574.59;;;-142.11;100.00
14800;BME280;7491;57.750;11.970;2022-09-09T06:38:34;75576.63;;;-142.11;100.00
14800;BME280;7491;57.750;11.970;2022-09-09T06:41:00;75564.41;;;-142.11;100.00
14800;BME280;7491;57.750;11.970;2022-09-09T06:43:27;75560.31;;;-142.11;100.00
14800;BME280;7491;57.750;11.970;2022-09-09T06:45:57;75539.94;;;-142.11;100.00
14800;BME280;7491;57.750;11.970;2022-09-09T06:48:24;75527.72;;;-142.11;100.00
14800;BME280;7491;57.750;11.970;2022-09-09T06:51:00;75523.63;;;-142.11;100.00
14800;BME280;7491;57.750;11.970;2022-09-09T06:53:27;75517.53;;;-142.11;100.00
14800;BME280;7491;57.750;11.970;2022-09-09T06:55:54;75507.34;;;-142.11;100.00
14800;BME280;7491;57.750;11.970;2022-09-09T06:58:21;75499.19;;;-142.11;100.00
14800;BME280;7491;57.750;11.970;2022-09-09T07:00:48;75495.09;;;-142.11;100.00
14800;BME280;7491;57.750;11.970;2022-09-09T07:03:16;75491.03;;;-142.11;100.00
14800;BME280;7491;57.750;11.970;2022-09-09T07:05:43;75478.78;;;-142.11;100.00
14800;BME280;7491;57.750;11.970;2022-09-09T07:08:10;75470.66;;;-142.11;100.00
14800;BME280;7491;57.750;11.970;2022-09-09T07:10:37;75464.53;;;-142.11;100.00
14800;BME280;7491;57.750;11.970;2022-09-09T07:13:03;75452.31;;;-142.11;100.00
14800;BME280;7491;57.750;11.970;2022-09-09T07:15:31;75442.13;;;-142.11;100.00
14800;BME280;7491;57.750;11.970;2022-09-09T07:18:00;75436.00;;;-142.11;100.00
14800;BME280;7491;57.750;11.970;2022-09-09T07:20:29;75425.81;;;-142.11;100.00
14800;BME280;7491;57.750;11.970;2022-09-09T07:22:56;75419.69;;;-142.11;100.00
14800;BME280;7491;57.750;11.970;2022-09-09T07:25:24;75405.44;;;-142.11;100.00
14800;BME280;7491;57.750;11.970;2022-09-09T07:27:51;75401.34;;;-142.11;100.00
14800;BME280;7491;57.750;11.970;2022-09-09T07:30:18;75395.25;;;-142.11;100.00
14800;BME280;7491;57.750;11.970;2022-09-09T07:32:45;75372.81;;;-142.11;100.00
14800;BME280;7491;57.750;11.970;2022-09-09T07:35:12;75374.84;;;-142.11;100.00
14800;BME280;7491;57.750;11.970;2022-09-09T07:37:40;75368.75;;;-142.11;100.00
14800;BME280;7491;57.750;11.970;2022-09-09T07:40:07;75358.56;;;-142.11;100.00
14800;BME280;7491;57.750;11.970;2022-09-09T07:42:34;75352.44;;;-142.11;100.00
14800;BME280;7491;57.750;11.970;2022-09-09T07:45:01;75346.31;;;-142.11;100.00
14800;BME280;7491;57.750;11.970;2022-09-09T07:47:28;75348.38;;;-142.11;100.00
14800;BME280;7491;57.750;11.970;2022-09-09T07:49:54;75342.25;;;-142.11;100.00
14800;BME280;7491;57.750;11.970;2022-09-09T07:52:21;75336.13;;;-142.11;100.00
14800;BME280;7491;57.750;11.970;2022-09-09T07:54:50;75336.13;;;-142.11;100.00
14800;BME280;7491;57.750;11.970;2022-09-09T07:57:17;75327.97;;;-142.11;100.00
14800;BME280;7491;57.750;11.970;2022-09-09T07:59:44;75325.94;;;-142.11;100.00
14800;BME280;7491;57.750;11.970;2022-09-09T08:02:11;75321.88;;;-142.11;100.00
14800;BME280;7491;57.750;11.970;2022-09-09T08:04:38;75319.81;;;-142.11;100.00
14800;BME280;7491;57.750;11.970;2022-09-09T08:07:05;75311.69;;;-142.11;100.00
14800;BME280;7491;57.750;11.970;2022-09-09T08:09:31;75307.59;;;-142.11;100.00
14800;BME280;7491;57.750;11.970;2022-09-09T08:12:00;75295.38;;;-142.11;100.00
14800;BME280;7491;57.750;11.970;2022-09-09T08:14:27;75293.34;;;-142.11;100.00
14800;BME280;7491;57.750;11.970;2022-09-09T08:16:55;75277.03;;;-142.11;100.00
14800;BME280;7491;57.750;11.970;2022-09-09T08:19:22;75277.03;;;-142.11;100.00
14800;BME280;7491;57.750;11.970;2022-09-09T08:21:49;75264.81;;;-142.11;100.00
14800;BME280;7491;57.750;11.970;2022-09-09T08:24:16;75250.53;;;-142.11;100.00
14800;BME280;7491;57.750;11.970;2022-09-09T08:26:46;75248.50;;;-142.11;100.00
14800;BME280;7491;57.750;11.970;2022-09-09T08:29:15;75238.31;;;-142.11;100.00
14800;BME280;7491;57.750;11.970;2022-09-09T08:31:44;75230.16;;;-142.11;100.00
14800;BME280;7491;57.750;11.970;2022-09-09T08:34:11;75226.09;;;-142.11;100.00
14800;BME280;7491;57.750;11.970;2022-09-09T08:36:39;75217.94;;;-142.11;100.00
14800;BME280;7491;57.750;11.970;2022-09-09T08:39:09;75219.97;;;-142.11;100.00
14800;BME280;7491;57.750;11.970;2022-09-09T08:45:00;75217.94;;;-142.11;100.00
14800;BME280;7491;57.750;11.970;2022-09-09T08:47:36;75207.75;;;-142.11;100.00
14800;BME280;7491;57.750;11.970;2022-09-09T08:50:16;75193.47;;;-142.11;100.00
14800;BME280;7491;57.750;11.970;2022-09-09T08:52:52;75193.47;;;-142.11;100.00
14800;BME280;7491;57.750;11.970;2022-09-09T08:55:25;75185.31;;;-142.11;100.00
14800;BME280;7491;57.750;11.970;2022-09-09T08:57:55;75173.09;;;-142.11;100.00
14800;BME280;7491;57.750;11.970;2022-09-09T09:00:28;75179.22;;;-142.11;100.00
14800;BME280;7491;57.750;11.970;2022-09-09T09:03:06;75164.94;;;-142.11;100.00
14800;BME280;7491;57.750;11.970;2022-09-09T09:05:38;75160.88;;;-142.11;100.00
14800;BME280;7491;57.750;11.970;2022-09-09T09:08:15;75144.56;;;-142.11;100.00
14800;BME280;7491;57.750;11.970;2022-09-09T09:10:47;75146.59;;;-142.11;100.00
14800;BME280;7491;57.750;11.970;2022-09-09T09:13:17;75144.56;;;-142.11;100.00
14800;BME280;7491;57.750;11.970;2022-09-09T09:15:50;75140.50;;;-142.11;100.00
14800;BME280;7491;57.750;11.970;2022-09-09T09:18:19;75134.38;;;-142.11;100.00
14800;BME280;7491;57.750;11.970;2022-09-09T09:20:50;75128.25;;;-142.11;100.00
14800;BME280;7491;57.750;11.970;2022-09-09T09:23:23;75114.00;;;-142.11;100.00
14800;BME280;7491;57.750;11.970;2022-09-09T09:25:53;75107.88;;;-142.11;100.00
14800;BME280;7491;57.750;11.970;2022-09-09T09:28:25;75105.84;;;-142.11;100.00
14800;BME280;7491;57.750;11.970;2022-09-09T09:30:55;75085.47;;;-142.11;100.00
14800;BME280;7491;57.750;11.970;2022-09-09T09:33:27;75081.41;;;-142.11;100.00
14800;BME280;7491;57.750;11.970;2022-09-09T09:35:55;75071.19;;;-142.11;100.00
14800;BME280;7491;57.750;11.970;2022-09-09T09:38:23;75067.13;;;-142.11;100.00
14800;BME280;7491;57.750;11.970;2022-09-09T09:40:51;75052.88;;;-142.11;100.00
14800;BME280;7491;57.750;11.970;2022-09-09T09:43:22;75048.78;;;-142.11;100.00
14800;BME280;7491;57.750;11.970;2022-09-09T09:45:50;75050.81;;;-142.11;100.00
14800;BME280;7491;57.750;11.970;2022-09-09T09:48:18;75040.63;;;-142.11;100.00
14800;BME280;7491;57.750;11.970;2022-09-09T09:50:49;75046.75;;;-142.11;100.00
14800;BME280;7491;57.750;11.970;2022-09-09T09:53:21;75034.53;;;-142.11;100.00
14800;BME280;7491;57.750;11.970;2022-09-09T09:55:55;75026.38;;;-142.11;100.00
14800;BME280;7491;57.750;11.970;2022-09-09T09:58:23;75034.53;;;-142.11;100.00
14800;BME280;7491;57.750;11.970;2022-09-09T10:00:52;75022.28;;;-142.11;100.00
14800;BME280;7491;57.750;11.970;2022-09-09T10:03:26;75024.34;;;-142.11;100.00
14800;BME280;7491;57.750;11.970;2022-09-09T10:05:53;75030.44;;;-142.11;100.00
14800;BME280;7491;57.750;11.970;2022-09-09T10:08:22;75026.38;;;-142.11;100.00
14800;BME280;7491;57.750;11.970;2022-09-09T10:10:56;75024.34;;;-142.11;100.00
14800;BME280;7491;57.750;11.970;2022-09-09T10:13:33;75022.28;;;-142.11;100.00
14800;BME280;7491;57.750;11.970;2022-09-09T10:16:15;75036.56;;;-142.11;100.00
14800;BME280;7491;57.750;11.970;2022-09-09T10:18:58;75046.75;;;-142.11;100.00
14800;BME280;7491;57.750;11.970;2022-09-09T10:21:38;75044.72;;;-142.11;100.00
14800;BME280;7491;57.750;11.970;2022-09-09T10:24:39;75056.94;;;-142.11;100.00
14800;BME280;7491;57.750;11.970;2022-09-09T10:27:15;75052.88;;;-142.11;100.00
14800;BME280;7491;57.750;11.970;2022-09-09T10:30:00;75063.06;;;-142.11;100.00
14800;BME280;7491;57.750;11.970;2022-09-09T10:32:36;75085.47;;;-142.11;100.00
14800;BME280;7491;57.750;11.970;2022-09-09T10:35:10;75095.66;;;-142.11;100.00
14800;BME280;7491;57.750;11.970;2022-09-09T10:37:46;75107.88;;;-142.11;100.00
14800;BME280;7491;57.750;11.970;2022-09-09T10:40:24;75114.00;;;-142.11;100.00
14800;BME280;7491;57.750;11.970;2022-09-09T10:43:00;75136.41;;;-142.11;100.00
14800;BME280;7491;57.750;11.970;2022-09-09T10:45:37;75156.78;;;-142.11;100.00
14800;BME280;7491;57.750;11.970;2022-09-09T10:48:18;75171.06;;;-142.11;100.00
14800;BME280;7491;57.750;11.970;2022-09-09T10:50:57;75197.56;;;-142.11;100.00
14800;BME280;7491;57.750;11.970;2022-09-09T10:53:35;75209.78;;;-142.11;100.00
14800;BME280;7491;57.750;11.970;2022-09-09T10:56:06;75205.72;;;-142.11;100.00
14800;BME280;7491;57.750;11.970;2022-09-09T10:58:37;75193.47;;;-142.11;100.00
14800;BME280;7491;57.750;11.970;2022-09-09T11:01:14;75203.66;;;-142.11;100.00
14800;BME280;7491;57.750;11.970;2022-09-09T11:03:43;75215.91;;;-142.11;100.00
14800;BME280;7491;57.750;11.970;2022-09-09T11:06:16;75238.31;;;-142.11;100.00
14800;BME280;7491;57.750;11.970;2022-09-09T11:08:45;75242.38;;;-142.11;100.00
14800;BME280;7491;57.750;11.970;2022-09-09T11:11:16;75250.53;;;-142.11;100.00
14800;BME280;7491;57.750;11.970;2022-09-09T11:13:49;75250.53;;;-142.11;100.00
14800;BME280;7491;57.750;11.970;2022-09-09T11:16:25;75244.44;;;-142.11;100.00
14800;BME280;7491;57.750;11.970;2022-09-09T11:18:57;75254.63;;;-142.11;100.00
14800;BME280;7491;57.750;11.970;2022-09-09T11:21:28;75258.69;;;-142.11;100.00
14800;BME280;7491;57.750;11.970;2022-09-09T11:23:59;75252.56;;;-142.11;100.00
14800;BME280;7491;57.750;11.970;2022-09-09T11:26:32;75252.56;;;-142.11;100.00
14800;BME280;7491;57.750;11.970;2022-09-09T11:29:21;75268.88;;;-142.11;100.00
14800;BME280;7491;57.750;11.970;2022-09-09T11:32:04;75262.75;;;-142.11;100.00
14800;BME280;7491;57.750;11.970;2022-09-09T11:34:44;75268.88;;;-142.11;100.00
14800;BME280;7491;57.750;11.970;2022-09-09T11:37:26;75272.97;;;-142.11;100.00
14800;BME280;7491;57.750;11.970;2022-09-09T11:40:17;75289.25;;;-142.11;100.00
14800;BME280;7491;57.750;11.970;2022-09-09T11:42:45;75275.00;;;-142.11;100.00
14800;BME280;7491;57.750;11.970;2022-09-09T11:45:23;75277.03;;;-142.11;100.00
14800;BME280;7491;57.750;11.970;2022-09-09T11:47:52;75279.06;;;-142.11;100.00
14800;BME280;7491;57.750;11.970;2022-09-09T11:50:34;75281.09;;;-142.11;100.00
14800;BME280;7491;57.750;11.970;2022-09-09T11:53:23;75266.84;;;-142.11;100.00
14800;BME280;7491;57.750;11.970;2022-09-09T11:56:08;75260.72;;;-142.11;100.00
14800;BME280;7491;57.750;11.970;2022-09-09T11:58:41;75266.84;;;-142.11;100.00
14800;BME280;7491;57.750;11.970;2022-09-09T12:01:35;75272.97;;;-142.11;100.00
14800;BME280;7491;57.750;11.970;2022-09-09T12:04:27;75279.06;;;-142.11;100.00
14800;BME280;7491;57.750;11.970;2022-09-09T12:06:58;75272.97;;;-142.11;100.00
14800;BME280;7491;57.750;11.970;2022-09-09T12:09:33;75281.09;;;-142.11;100.00
14800;BME280;7491;57.750;11.970;2022-09-09T12:12:22;75289.25;;;-142.11;100.00
14800;BME280;7491;57.750;11.970;2022-09-09T12:15:19;75281.09;;;-142.11;100.00
14800;BME280;7491;57.750;11.970;2022-09-09T12:17:48;75272.97;;;-142.11;100.00
14800;BME280;7491;57.750;11.970;2022-09-09T12:20:17;75268.88;;;-142.11;100.00
14800;BME280;7491;57.750;11.970;2022-09-09T12:25:47;75260.72;;;-142.11;100.00
14800;BME280;7491;57.750;11.970;2022-09-09T12:28:17;75268.88;;;-142.11;100.00
14800;BME280;7491;57.750;11.970;2022-09-09T12:30:51;75275.00;;;-142.11;100.00
14800;BME280;7491;57.750;11.970;2022-09-09T12:33:20;75272.97;;;-142.11;100.00
14800;BME280;7491;57.750;11.970;2022-09-09T12:35:51;75275.00;;;-142.11;100.00
14800;BME280;7491;57.750;11.970;2022-09-09T12:38:27;75279.06;;;-142.11;100.00
14800;BME280;7491;57.750;11.970;2022-09-09T12:40:58;75281.09;;;-142.11;100.00
14800;BME280;7491;57.750;11.970;2022-09-09T12:43:26;75272.97;;;-142.11;100.00
14800;BME280;7491;57.750;11.970;2022-09-09T12:45:57;75264.81;;;-142.11;100.00
14800;BME280;7491;57.750;11.970;2022-09-09T12:48:31;75264.81;;;-142.11;100.00
14800;BME280;7491;57.750;11.970;2022-09-09T12:50:59;75275.00;;;-142.11;100.00
14800;BME280;7491;57.750;11.970;2022-09-09T12:53:29;75272.97;;;-142.11;100.00
14800;BME280;7491;57.750;11.970;2022-09-09T12:56:00;75270.91;;;-142.11;100.00